Time;durP1;ratioP1;P1;durP2;ratioP2;P2;SDS_P1;SDS_P2;PMS_P1;PMS_P2;Temp;Humidity;BMP_temperature;BMP_pressure;BME280_temperature;BME280_humidity;BME280_pressure;Samples;Min_cycle;Max_cycle;Signal;HPM_P1;HPM_P2
2021/05/15 00:00:39;;;;;;;1.47;1.37;;;;;;;10.20;70.49;97754.53;127443;1107;115431;-82
2021/05/15 00:03:05;;;;;;;2.08;1.43;;;;;;;10.16;70.43;97758.98;127453;1108;115012;-81
2021/05/15 00:05:32;;;;;;;1.60;1.50;;;;;;;10.11;70.44;97753.78;127415;1107;115209;-83
2021/05/15 00:08:02;;;;;;;1.45;1.40;;;;;;;10.12;70.63;97762.64;128375;1104;22733;-82
2021/05/15 00:10:29;;;;;;;1.45;1.38;;;;;;;10.13;70.90;97758.83;127475;1104;116043;-82
2021/05/15 00:12:55;;;;;;;1.63;1.53;;;;;;;10.14;71.13;97757.70;127421;1107;115911;-81
2021/05/15 00:15:21;;;;;;;1.13;1.13;;;;;;;10.15;71.29;97762.78;127582;1104;115470;-82
2021/05/15 00:17:47;;;;;;;1.60;1.50;;;;;;;10.15;71.01;97753.93;127418;1104;116222;-81
2021/05/15 00:20:15;;;;;;;1.38;1.30;;;;;;;10.14;71.72;97752.33;128291;1104;22766;-80
2021/05/15 00:22:44;;;;;;;1.25;1.25;;;;;;;10.12;70.72;97759.95;127463;1105;115782;-81
2021/05/15 00:25:13;;;;;;;1.95;1.60;;;;;;;10.10;71.10;97754.89;127457;1106;115708;-81
2021/05/15 00:27:39;;;;;;;1.60;1.35;;;;;;;10.07;71.70;97752.84;127512;1105;115580;-81
2021/05/15 00:30:08;;;;;;;1.88;1.78;;;;;;;10.04;71.21;97758.86;127531;1099;115588;-81
2021/05/15 00:32:34;;;;;;;1.68;1.58;;;;;;;10.00;71.34;97752.54;127527;1104;115559;-81
2021/05/15 00:35:00;;;;;;;2.10;1.60;;;;;;;9.97;71.96;97748.58;128313;1107;22760;-81
2021/05/15 00:37:27;;;;;;;1.90;1.75;;;;;;;9.95;71.26;97753.50;127561;1104;115539;-81
2021/05/15 00:39:53;;;;;;;1.50;1.40;;;;;;;9.96;71.40;97751.60;127569;1104;115958;-82
2021/05/15 00:42:19;;;;;;;3.15;1.70;;;;;;;9.99;71.46;97753.66;127461;1100;115282;-83
2021/05/15 00:44:45;;;;;;;1.48;1.38;;;;;;;10.00;72.03;97749.84;127553;1100;116060;-82
2021/05/15 00:47:19;;;;;;;1.60;1.50;;;;;;;10.03;72.16;97743.84;128408;1104;22747;-81
2021/05/15 00:49:46;;;;;;;1.60;1.50;;;;;;;10.04;72.01;97756.95;127638;1100;115296;-81
2021/05/15 00:52:13;;;;;;;2.20;1.53;;;;;;;10.04;71.96;97759.64;127585;1107;114970;-81
2021/05/15 00:54:41;;;;;;;1.35;1.35;;;;;;;10.02;72.12;97756.50;127448;1100;116322;-81
2021/05/15 00:57:09;;;;;;;1.75;1.55;;;;;;;10.01;71.86;97748.73;127619;1104;115558;-81
2021/05/15 00:59:36;;;;;;;1.50;1.40;;;;;;;9.99;71.62;97761.73;127569;1104;116089;-82
2021/05/15 01:02:04;;;;;;;1.58;1.48;;;;;;;9.95;71.58;97766.95;128278;1104;22757;-82
2021/05/15 01:04:30;;;;;;;1.60;1.40;;;;;;;9.93;71.79;97761.09;127508;1104;115396;-81
2021/05/15 01:06:59;;;;;;;1.70;1.60;;;;;;;9.88;71.50;97755.89;127582;1104;115171;-81
2021/05/15 01:09:25;;;;;;;1.80;1.70;;;;;;;9.85;71.90;97751.14;127591;1105;115567;-81
2021/05/15 01:11:51;;;;;;;2.30;2.10;;;;;;;9.84;71.70;97754.95;127394;1105;115720;-81
2021/05/15 01:14:17;;;;;;;1.50;1.40;;;;;;;9.84;71.74;97752.25;128332;1099;26001;-81
2021/05/15 01:16:43;;;;;;;1.85;1.75;;;;;;;9.86;72.15;97757.30;127564;1104;115680;-81
2021/05/15 01:19:12;;;;;;;1.40;1.40;;;;;;;9.87;72.17;97754.31;127484;1104;115572;-81
2021/05/15 01:21:39;;;;;;;1.93;1.60;;;;;;;9.86;72.12;97752.71;127664;1099;117217;-81
2021/05/15 01:24:05;;;;;;;1.40;1.40;;;;;;;9.87;71.95;97753.53;127432;1104;115920;-81
2021/05/15 01:26:32;;;;;;;1.60;1.50;;;;;;;9.85;72.03;97756.52;127503;1098;115644;-81
2021/05/15 01:29:01;;;;;;;1.60;1.50;;;;;;;9.83;72.04;97751.47;128404;1104;22759;-81
2021/05/15 01:31:29;;;;;;;1.50;1.43;;;;;;;9.80;72.28;97741.34;127463;1104;115308;-81
2021/05/15 01:33:56;;;;;;;1.68;1.55;;;;;;;9.78;72.04;97742.77;127682;1105;115155;-82
2021/05/15 01:36:23;;;;;;;1.58;1.48;;;;;;;9.74;71.79;97742.61;127524;1100;115154;-82
2021/05/15 01:38:49;;;;;;;1.88;1.70;;;;;;;9.71;72.14;97755.92;127512;1104;115508;-81
2021/05/15 01:41:18;;;;;;;1.90;1.80;;;;;;;9.68;71.98;97751.97;128384;1104;22786;-81
2021/05/15 01:43:45;;;;;;;1.75;1.65;;;;;;;9.68;72.48;97749.28;127496;1105;114983;-82
2021/05/15 01:46:12;;;;;;;2.08;1.63;;;;;;;9.70;72.23;97743.57;127457;1104;115745;-82
2021/05/15 01:48:39;;;;;;;1.25;1.25;;;;;;;9.73;72.84;97746.41;127474;1105;114559;-83
2021/05/15 01:51:13;;;;;;;1.35;1.33;;;;;;;9.75;72.99;97736.14;127485;1105;116092;-83
2021/05/15 01:53:42;;;;;;;1.55;1.45;;;;;;;9.75;72.55;97735.36;127532;1105;115644;-82
2021/05/15 01:56:11;;;;;;;1.48;1.38;;;;;;;9.75;72.72;97738.05;128357;1104;22780;-82
2021/05/15 01:58:39;;;;;;;1.60;1.50;;;;;;;9.73;72.51;97734.88;127546;1100;114567;-82
2021/05/15 02:01:06;;;;;;;2.13;1.38;;;;;;;9.71;72.95;97737.89;127424;1105;115675;-82
2021/05/15 02:03:33;;;;;;;1.58;1.48;;;;;;;9.68;72.04;97733.15;127370;1107;115084;-81
2021/05/15 02:05:59;;;;;;;1.95;1.38;;;;;;;9.65;72.69;97733.78;127608;1104;115946;-81
2021/05/15 02:08:25;;;;;;;1.75;1.65;;;;;;;9.61;72.09;97732.05;128358;1104;22826;-81
2021/05/15 02:10:53;;;;;;;2.00;1.50;;;;;;;9.56;72.53;97727.63;127646;1104;115291;-81
2021/05/15 02:13:19;;;;;;;2.00;1.85;;;;;;;9.52;72.53;97735.54;127590;1104;115579;-81
2021/05/15 02:15:47;;;;;;;1.48;1.48;;;;;;;9.52;72.76;97732.06;127581;1104;114834;-82
2021/05/15 02:18:14;;;;;;;2.15;1.65;;;;;;;9.53;72.50;97739.02;127536;1104;115948;-82
2021/05/15 02:20:43;;;;;;;2.18;1.98;;;;;;;9.54;72.60;97736.00;127456;1105;115470;-82
2021/05/15 02:23:10;;;;;;;2.85;2.00;;;;;;;9.57;72.38;97727.30;128412;1104;22779;-82
2021/05/15 02:25:37;;;;;;;1.80;1.70;;;;;;;9.58;72.94;97722.72;127740;1104;115271;-82
2021/05/15 02:28:04;;;;;;;1.90;1.80;;;;;;;9.59;72.72;97727.80;127722;1104;116706;-81
2021/05/15 02:30:32;;;;;;;1.68;1.58;;;;;;;9.60;72.78;97725.89;127517;1105;115650;-81
2021/05/15 02:32:58;;;;;;;1.80;1.70;;;;;;;9.58;72.71;97723.50;127702;1104;115504;-82
2021/05/15 02:35:24;;;;;;;1.93;1.80;;;;;;;9.57;73.17;97721.14;128261;1104;22779;-81
2021/05/15 02:37:51;;;;;;;1.60;1.55;;;;;;;9.55;72.99;97729.53;127709;1100;115226;-81
2021/05/15 02:40:19;;;;;;;2.00;1.65;;;;;;;9.53;72.80;97725.58;127568;1104;116162;-81
2021/05/15 02:42:45;;;;;;;1.68;1.53;;;;;;;9.51;73.14;97720.53;127556;1105;116462;-82
2021/05/15 02:45:13;;;;;;;2.13;1.70;;;;;;;9.53;73.25;97718.30;127551;1104;116468;-81
2021/05/15 02:47:43;;;;;;;1.35;1.30;;;;;;;9.56;73.50;97731.11;127539;1104;115042;-81
2021/05/15 02:50:14;;;;;;;4.63;1.55;;;;;;;9.63;73.40;97732.51;128382;1100;25874;-81
2021/05/15 02:52:41;;;;;;;2.00;1.50;;;;;;;9.65;73.22;97725.72;127573;1104;114976;-81
2021/05/15 02:55:10;;;;;;;1.60;1.50;;;;;;;9.70;73.07;97732.82;127536;1099;115989;-81
2021/05/15 02:57:37;;;;;;;3.50;1.40;;;;;;;9.73;73.41;97732.19;127530;1104;115057;-81
2021/05/15 03:00:08;;;;;;;1.38;1.28;;;;;;;9.76;73.41;97739.63;127670;1104;115552;-81
2021/05/15 03:02:35;;;;;;;1.80;1.40;;;;;;;9.76;73.14;97742.31;127657;1104;116570;-82
2021/05/15 03:05:05;;;;;;;1.38;1.28;;;;;;;9.75;73.61;97751.49;128443;1104;22730;-82
2021/05/15 03:07:31;;;;;;;3.38;1.30;;;;;;;9.73;73.31;97737.56;127580;1104;115348;-82
2021/05/15 03:09:57;;;;;;;1.63;1.50;;;;;;;9.71;73.64;97750.55;127559;1104;115234;-82
2021/05/15 03:12:23;;;;;;;1.70;1.60;;;;;;;9.69;73.44;97744.69;127442;1099;115998;-82
2021/05/15 03:14:49;;;;;;;2.60;1.68;;;;;;;9.71;73.53;97745.95;127523;1099;115813;-82
2021/05/15 03:17:15;;;;;;;1.60;1.45;;;;;;;9.75;73.48;97746.11;128330;1104;23346;-81
2021/05/15 03:19:41;;;;;;;1.33;1.30;;;;;;;9.80;73.97;97737.88;127628;1104;115774;-81
2021/05/15 03:22:08;;;;;;;1.60;1.50;;;;;;;9.86;73.99;97743.86;127582;1104;115296;-81
2021/05/15 03:24:34;;;;;;;2.03;1.33;;;;;;;9.87;73.26;97748.16;127546;1100;115569;-82
2021/05/15 03:27:00;;;;;;;1.25;1.20;;;;;;;9.91;73.56;97747.19;127555;1104;115547;-82
2021/05/15 03:29:27;;;;;;;1.50;1.40;;;;;;;9.91;73.76;97749.88;128249;1104;22746;-81
2021/05/15 03:31:54;;;;;;;1.50;1.40;;;;;;;9.93;73.90;97749.55;127562;1104;115809;-82
2021/05/15 03:34:20;;;;;;;1.48;1.43;;;;;;;9.91;74.06;97752.56;127447;1099;115400;-81
2021/05/15 03:36:47;;;;;;;1.60;1.50;;;;;;;9.91;73.41;97744.50;127516;1104;115605;-81
2021/05/15 03:39:18;;;;;;;1.98;1.33;;;;;;;9.91;73.62;97747.19;127473;1104;115643;-81
2021/05/15 03:41:47;;;;;;;1.80;1.70;;;;;;;9.92;73.64;97746.07;127471;1098;115121;-81
2021/05/15 03:44:14;;;;;;;1.68;1.50;;;;;;;9.96;74.04;97751.60;128367;1104;22789;-81
2021/05/15 03:46:41;;;;;;;1.45;1.35;;;;;;;10.03;74.50;97757.28;127367;1105;114934;-82
2021/05/15 03:49:09;;;;;;;1.50;1.40;;;;;;;10.09;74.47;97754.08;127513;1104;115240;-82
2021/05/15 03:51:36;;;;;;;1.55;1.40;;;;;;;10.15;74.02;97751.23;127482;1104;114907;-82
2021/05/15 03:54:03;;;;;;;1.78;1.65;;;;;;;10.20;73.89;97751.84;127512;1104;115497;-83
2021/05/15 03:56:29;;;;;;;2.78;1.33;;;;;;;10.25;73.98;97756.28;128124;1104;115756;-83
2021/05/15 03:58:55;;;;;;;2.28;1.40;;;;;;;10.29;74.05;97754.53;128115;1104;119506;-83
2021/05/15 04:01:22;;;;;;;1.50;1.40;;;;;;;10.31;73.88;97750.41;127607;1104;116035;-83
2021/05/15 04:03:48;;;;;;;1.40;1.25;;;;;;;10.34;73.81;97748.98;127712;1104;115322;-83
2021/05/15 04:06:16;;;;;;;1.55;1.45;;;;;;;10.36;73.99;97752.13;127485;1104;115926;-83
2021/05/15 04:08:42;;;;;;;2.20;1.60;;;;;;;10.38;73.88;97755.30;127587;1104;115676;-83
2021/05/15 04:11:09;;;;;;;1.93;1.08;;;;;;;10.45;73.85;97757.47;128425;1104;22754;-83
2021/05/15 04:16:11;;;;;;;1.40;1.30;;;;;;;10.61;73.65;97763.11;127519;1106;115790;-83
2021/05/15 04:18:38;;;;;;;1.68;1.40;;;;;;;10.69;74.22;97759.58;127447;1100;115766;-83
2021/05/15 04:21:04;;;;;;;1.85;1.50;;;;;;;10.76;74.01;97768.73;127448;1104;115735;-83
2021/05/15 04:23:30;;;;;;;1.40;1.30;;;;;;;10.83;73.34;97773.61;127831;1100;115376;-83
2021/05/15 04:25:56;;;;;;;2.35;1.55;;;;;;;10.89;73.85;97766.94;128295;1104;119643;-83
2021/05/15 04:28:23;;;;;;;1.30;1.30;;;;;;;10.94;73.46;97764.05;127505;1100;116011;-82
2021/05/15 04:30:49;;;;;;;1.43;1.33;;;;;;;10.98;73.65;97762.28;127621;1104;115193;-82
2021/05/15 04:33:15;;;;;;;2.25;1.30;;;;;;;11.03;73.34;97761.30;127454;1104;115236;-82
2021/05/15 04:35:41;;;;;;;2.28;1.40;;;;;;;11.08;73.18;97754.92;127500;1105;115653;-83
2021/05/15 04:38:08;;;;;;;1.50;1.40;;;;;;;11.16;74.13;97768.36;128396;1104;22767;-83
2021/05/15 04:40:34;;;;;;;1.10;1.10;;;;;;;11.25;73.47;97766.38;127469;1105;115083;-83
2021/05/15 04:43:01;;;;;;;1.08;1.08;;;;;;;11.34;74.35;97766.31;127549;1104;116288;-82
2021/05/15 04:45:31;;;;;;;1.40;1.30;;;;;;;11.44;73.75;97765.92;127586;1104;115432;-82
2021/05/15 04:47:58;;;;;;;1.38;1.30;;;;;;;11.55;73.62;97758.20;127462;1104;115320;-83
2021/05/15 04:50:25;;;;;;;1.13;1.13;;;;;;;11.64;73.43;97764.33;128426;1105;23332;-82
2021/05/15 04:52:51;;;;;;;1.15;1.08;;;;;;;11.73;73.03;97773.13;127707;1099;114849;-82
2021/05/15 04:55:18;;;;;;;1.55;1.20;;;;;;;11.79;73.25;97758.33;127518;1104;116358;-82
2021/05/15 04:57:45;;;;;;;1.20;1.20;;;;;;;11.85;73.35;97760.84;127519;1104;114921;-82
2021/05/15 05:00:12;;;;;;;1.25;1.23;;;;;;;11.89;72.56;97769.84;127494;1098;115531;-82
2021/05/15 05:02:39;;;;;;;1.30;1.30;;;;;;;11.93;73.34;97768.05;127561;1104;115115;-82
2021/05/15 05:05:07;;;;;;;1.80;1.30;;;;;;;11.97;73.22;97763.56;128376;1104;22730;-81
2021/05/15 05:07:33;;;;;;;1.13;1.00;;;;;;;12.05;73.52;97762.69;127458;1099;115411;-82
2021/05/15 05:09:59;;;;;;;1.65;1.30;;;;;;;12.15;73.70;97764.98;127554;1105;116851;-82
2021/05/15 05:12:25;;;;;;;1.48;1.38;;;;;;;12.26;73.38;97768.02;127566;1104;115530;-82
2021/05/15 05:14:51;;;;;;;1.80;1.30;;;;;;;12.38;73.40;97767.25;127504;1105;115407;-82
2021/05/15 05:17:17;;;;;;;1.85;1.70;;;;;;;12.49;73.01;97766.47;128288;1105;22766;-82
2021/05/15 05:19:43;;;;;;;2.43;1.58;;;;;;;12.62;72.48;97771.91;127518;1105;115145;-82
2021/05/15 05:22:09;;;;;;;2.10;1.65;;;;;;;12.73;72.76;97765.72;127512;1105;116742;-82
2021/05/15 05:24:35;;;;;;;2.00;1.80;;;;;;;12.85;71.89;97767.63;127441;1100;114979;-82
2021/05/15 05:27:02;;;;;;;1.88;1.78;;;;;;;12.96;71.03;97768.72;127455;1105;115700;-82
2021/05/15 05:29:29;;;;;;;1.50;1.40;;;;;;;13.07;70.35;97784.48;128371;1099;22729;-82
2021/05/15 05:31:55;;;;;;;2.38;1.63;;;;;;;13.18;70.68;97785.61;127956;1104;115179;-82
2021/05/15 05:34:21;;;;;;;1.63;1.53;;;;;;;13.26;70.45;97780.09;127428;1104;115806;-82
2021/05/15 05:36:48;;;;;;;1.93;1.73;;;;;;;13.35;69.68;97795.40;127499;1105;115098;-82
2021/05/15 05:39:19;;;;;;;2.00;1.85;;;;;;;13.41;69.70;97794.83;127419;1099;115974;-82
2021/05/15 05:41:47;;;;;;;2.53;1.80;;;;;;;13.54;69.93;97797.50;127529;1104;115915;-82
2021/05/15 05:44:14;;;;;;;1.95;1.48;;;;;;;13.69;69.64;97796.78;128343;1105;22801;-82
2021/05/15 05:46:40;;;;;;;2.23;1.60;;;;;;;13.85;68.38;97808.44;127690;1099;115308;-82
2021/05/15 05:49:07;;;;;;;3.80;1.95;;;;;;;13.98;68.77;97809.17;127565;1104;116531;-82
2021/05/15 05:51:34;;;;;;;1.90;1.80;;;;;;;14.16;68.24;97815.86;127534;1098;115386;-82
2021/05/15 05:54:01;;;;;;;3.23;1.87;;;;;;;14.29;67.50;97818.50;127633;1104;115721;-82
2021/05/15 05:56:27;;;;;;;1.45;1.35;;;;;;;14.45;65.91;97808.47;128362;1104;22789;-82
2021/05/15 05:58:55;;;;;;;1.60;1.50;;;;;;;14.54;66.47;97798.30;127492;1104;115391;-82
2021/05/15 06:01:22;;;;;;;1.50;1.40;;;;;;;14.64;66.48;97807.82;127502;1100;114962;-82
2021/05/15 06:03:48;;;;;;;1.58;1.48;;;;;;;14.77;66.18;97805.80;127488;1104;115846;-82
2021/05/15 06:06:15;;;;;;;2.10;1.60;;;;;;;14.84;66.07;97803.27;127534;1105;115430;-82
2021/05/15 06:08:42;;;;;;;1.65;1.55;;;;;;;14.90;65.72;97796.45;127420;1105;116016;-82
2021/05/15 06:11:08;;;;;;;2.83;1.68;;;;;;;14.96;65.51;97797.74;128393;1104;22757;-82
2021/05/15 06:13:34;;;;;;;2.25;1.70;;;;;;;15.00;64.59;97800.55;127590;1104;115527;-82
2021/05/15 06:16:01;;;;;;;2.13;1.75;;;;;;;15.05;63.98;97803.78;127542;1104;115564;-82
2021/05/15 06:18:28;;;;;;;2.05;1.60;;;;;;;15.10;64.38;97800.80;127459;1104;115649;-83
2021/05/15 06:20:54;;;;;;;2.63;1.75;;;;;;;15.17;63.52;97805.60;127445;1105;115048;-82
2021/05/15 06:23:21;;;;;;;2.10;1.70;;;;;;;15.23;63.70;97799.53;128253;1104;22746;-83
2021/05/15 06:25:47;;;;;;;3.25;1.90;;;;;;;15.31;63.38;97800.48;127605;1104;114975;-83
2021/05/15 06:28:13;;;;;;;2.53;1.78;;;;;;;15.41;63.57;97801.86;127455;1105;116037;-83
2021/05/15 06:30:39;;;;;;;1.70;1.60;;;;;;;15.53;63.81;97798.23;127514;1104;115087;-82
2021/05/15 06:33:07;;;;;;;2.13;1.60;;;;;;;15.63;62.94;97811.23;127472;1105;116565;-83
2021/05/15 06:35:33;;;;;;;1.68;1.55;;;;;;;15.73;62.42;97796.35;127442;1104;115329;-82
2021/05/15 06:37:59;;;;;;;1.95;1.70;;;;;;;15.82;62.09;97799.63;128142;1105;22790;-82
2021/05/15 06:40:26;;;;;;;2.60;1.85;;;;;;;15.89;61.95;97795.13;127215;1105;116078;-82
2021/05/15 06:42:52;;;;;;;2.38;1.73;;;;;;;15.99;61.30;97806.55;127368;1104;115572;-81
2021/05/15 06:45:18;;;;;;;3.93;2.05;;;;;;;16.10;61.67;97802.11;127197;1106;116696;-82
2021/05/15 06:47:44;;;;;;;1.60;1.50;;;;;;;16.23;61.39;97806.25;127193;1105;115590;-82
2021/05/15 06:50:10;;;;;;;1.95;1.78;;;;;;;16.34;61.31;97804.48;128211;1104;22779;-82
2021/05/15 06:52:37;;;;;;;2.05;1.85;;;;;;;16.45;60.81;97800.03;127384;1104;115038;-82
2021/05/15 06:55:07;;;;;;;2.83;1.78;;;;;;;16.55;60.06;97795.16;127245;1104;115184;-82
2021/05/15 06:57:33;;;;;;;1.98;1.88;;;;;;;16.62;60.05;97796.07;127263;1104;115599;-82
2021/05/15 06:59:59;;;;;;;2.10;1.93;;;;;;;16.80;60.28;97795.59;127253;1105;116051;-82
2021/05/15 07:02:25;;;;;;;1.98;1.80;;;;;;;16.92;59.86;97796.17;128117;1104;22734;-81
2021/05/15 07:04:52;;;;;;;3.30;1.85;;;;;;;17.12;60.29;97799.58;127484;1098;115597;-80
2021/05/15 07:07:20;;;;;;;2.20;2.00;;;;;;;17.29;59.84;97803.73;127642;1104;115503;-81
2021/05/15 07:09:49;;;;;;;2.88;1.95;;;;;;;17.42;59.51;97807.01;127668;1104;116574;-81
2021/05/15 07:12:17;;;;;;;3.18;2.05;;;;;;;17.51;58.89;97806.73;127619;1104;115544;-82
2021/05/15 07:14:44;;;;;;;2.53;1.95;;;;;;;17.69;57.37;97805.03;127545;1104;115537;-82
2021/05/15 07:17:12;;;;;;;2.68;1.93;;;;;;;17.84;55.94;97804.09;128385;1105;22735;-82
2021/05/15 07:19:38;;;;;;;2.48;2.00;;;;;;;17.95;55.84;97811.59;127708;1099;115212;-82
2021/05/15 07:22:05;;;;;;;5.40;2.20;;;;;;;18.06;54.48;97818.73;127517;1104;115822;-82
2021/05/15 07:24:32;;;;;;;2.35;1.90;;;;;;;18.13;53.28;97810.63;127611;1104;115317;-82
2021/05/15 07:26:58;;;;;;;3.43;2.45;;;;;;;18.26;55.71;97807.64;127605;1104;116238;-81
2021/05/15 07:29:24;;;;;;;2.13;1.90;;;;;;;18.39;54.29;97812.47;128459;1099;26197;-83
2021/05/15 07:31:49;;;;;;;2.83;2.15;;;;;;;18.45;54.03;97801.22;127688;1106;116327;-81
2021/05/15 07:34:15;;;;;;;1.93;1.70;;;;;;;18.57;54.26;97809.13;127603;1105;115507;-82
2021/05/15 07:36:42;;;;;;;2.15;1.65;;;;;;;18.74;53.75;97818.64;127572;1104;115965;-81
2021/05/15 07:39:08;;;;;;;2.58;1.73;;;;;;;18.89;53.72;97809.42;127607;1104;115927;-81
2021/05/15 07:41:35;;;;;;;2.83;1.70;;;;;;;19.04;52.39;97813.83;127585;1104;115397;-81
2021/05/15 07:44:01;;;;;;;1.70;1.60;;;;;;;19.21;52.13;97817.05;128325;1105;22811;-81
2021/05/15 07:46:27;;;;;;;2.48;1.90;;;;;;;19.34;51.05;97816.38;127462;1104;115972;-82
2021/05/15 07:48:54;;;;;;;2.03;1.70;;;;;;;19.37;51.57;97812.89;127425;1104;115641;-82
2021/05/15 07:51:22;;;;;;;3.30;1.85;;;;;;;19.46;50.78;97822.69;127529;1104;115153;-81
2021/05/15 07:53:52;;;;;;;2.45;1.68;;;;;;;19.50;50.80;97816.08;127582;1104;115233;-81
2021/05/15 07:56:19;;;;;;;2.35;1.90;;;;;;;19.57;50.40;97816.13;128437;1100;25880;-81
2021/05/15 07:58:46;;;;;;;1.80;1.70;;;;;;;19.64;49.24;97812.66;127631;1100;115143;-82
2021/05/15 08:01:12;;;;;;;2.88;1.95;;;;;;;19.66;48.95;97810.34;127616;1105;115647;-82
2021/05/15 08:03:38;;;;;;;4.35;1.85;;;;;;;19.67;47.80;97813.84;127535;1107;115959;-83
2021/05/15 08:06:04;;;;;;;2.88;1.83;;;;;;;19.69;47.80;97819.69;127589;1104;116376;-82
2021/05/15 08:08:31;;;;;;;2.35;1.80;;;;;;;19.70;47.56;97815.81;127627;1106;116111;-82
2021/05/15 08:10:57;;;;;;;3.03;1.90;;;;;;;19.71;47.26;97809.96;128354;1105;22850;-82
2021/05/15 08:13:24;;;;;;;3.08;1.55;;;;;;;19.71;47.50;97800.98;127612;1104;115339;-82
2021/05/15 08:15:51;;;;;;;2.08;1.88;;;;;;;19.77;47.08;97807.66;127573;1104;115480;-83
2021/05/15 08:18:17;;;;;;;2.88;2.10;;;;;;;19.78;47.68;97806.48;127509;1104;116069;-81
2021/05/15 08:20:44;;;;;;;3.40;2.18;;;;;;;19.84;48.03;97802.20;127623;1105;115921;-83
2021/05/15 08:23:10;;;;;;;2.55;2.30;;;;;;;19.94;48.75;97801.47;128290;1104;22763;-81
2021/05/15 08:25:38;;;;;;;2.08;1.90;;;;;;;20.08;48.46;97804.27;127553;1104;115196;-82
2021/05/15 08:28:12;;;;;;;2.93;1.80;;;;;;;20.15;48.06;97810.91;127640;1104;115211;-82
2021/05/15 08:30:39;;;;;;;1.90;1.70;;;;;;;20.13;47.53;97805.05;127584;1100;115505;-81
2021/05/15 08:33:07;;;;;;;1.95;1.75;;;;;;;20.17;47.98;97808.58;127582;1104;115504;-82
2021/05/15 08:35:33;;;;;;;2.63;2.08;;;;;;;20.24;47.66;97814.85;127336;1106;115835;-81
2021/05/15 08:38:01;;;;;;;3.60;2.00;;;;;;;20.30;47.27;97805.08;128390;1104;22733;-81
2021/05/15 08:40:28;;;;;;;3.03;1.90;;;;;;;20.32;47.10;97807.45;127598;1104;115309;-80
2021/05/15 08:42:55;;;;;;;2.78;2.03;;;;;;;20.38;47.05;97807.84;127608;1105;115789;-80
2021/05/15 08:45:25;;;;;;;3.00;1.85;;;;;;;20.43;46.87;97812.91;127607;1104;116174;-80
2021/05/15 08:47:52;;;;;;;3.18;1.90;;;;;;;20.46;46.67;97809.41;127568;1106;115963;-80
2021/05/15 08:50:26;;;;;;;2.98;1.88;;;;;;;20.48;46.10;97801.61;128334;1105;22891;-81
2021/05/15 08:52:54;;;;;;;3.03;1.75;;;;;;;20.47;45.19;97803.55;127539;1104;115233;-81
2021/05/15 08:55:28;;;;;;;2.08;1.98;;;;;;;20.45;44.74;97800.43;127463;1100;116082;-81
2021/05/15 08:57:57;;;;;;;4.25;2.50;;;;;;;20.42;44.01;97806.67;127581;1104;115964;-81
2021/05/15 09:00:41;;;;;;;2.80;2.23;;;;;;;20.30;44.20;97804.30;127698;1105;115472;-81
2021/05/15 09:03:13;;;;;;;7.15;2.88;;;;;;;20.09;44.96;97807.77;127576;1104;115134;-80
2021/05/15 09:05:43;;;;;;;4.00;3.00;;;;;;;20.03;45.39;97801.11;127664;1104;116023;-81
2021/05/15 09:08:11;;;;;;;3.45;2.78;;;;;;;20.07;45.10;97808.14;128393;1104;22736;-82
2021/05/15 09:10:42;;;;;;;2.88;2.45;;;;;;;20.09;44.80;97803.09;127548;1104;115759;-82
2021/05/15 09:13:21;;;;;;;3.20;2.60;;;;;;;20.17;45.09;97800.38;127550;1104;115409;-85
2021/05/15 09:15:51;;;;;;;3.63;2.33;;;;;;;20.40;46.19;97789.88;127548;1104;116099;-82
2021/05/15 09:18:22;;;;;;;3.37;2.40;;;;;;;20.68;46.47;97796.58;127602;1104;115711;-81
2021/05/15 09:20:51;;;;;;;2.83;2.35;;;;;;;20.84;45.03;97792.28;127607;1104;115396;-81
2021/05/15 09:23:50;;;;;;;3.30;2.20;;;;;;;20.99;44.71;97792.28;128160;1104;22766;-82
2021/05/15 09:26:19;;;;;;;3.13;2.50;;;;;;;21.12;44.20;97787.95;128354;1104;22757;-82
2021/05/15 09:28:54;;;;;;;2.85;2.25;;;;;;;21.27;44.27;97794.19;127158;1105;115012;-82
2021/05/15 09:31:27;;;;;;;2.75;1.90;;;;;;;21.44;43.58;97793.39;127403;1104;115961;-83
2021/05/15 09:34:03;;;;;;;3.98;2.65;;;;;;;21.65;44.59;97792.53;127075;1105;115419;-83
2021/05/15 09:36:31;;;;;;;3.98;2.40;;;;;;;21.79;44.57;97791.71;127100;1105;115787;-83
2021/05/15 09:39:10;;;;;;;4.05;2.55;;;;;;;21.84;44.82;97782.29;127568;1104;115686;-84
2021/05/15 09:41:53;;;;;;;4.65;2.70;;;;;;;21.88;44.68;97792.05;127449;1104;115732;-84
2021/05/15 09:44:24;;;;;;;3.38;2.65;;;;;;;21.95;44.47;97789.28;128037;1104;22756;-83
2021/05/15 09:46:50;;;;;;;4.00;2.53;;;;;;;22.01;44.44;97793.19;127449;1104;114739;-82
2021/05/15 09:49:20;;;;;;;3.50;2.50;;;;;;;22.09;44.38;97790.41;127314;1104;116008;-83
2021/05/15 09:52:01;;;;;;;3.08;2.60;;;;;;;22.19;44.42;97786.84;127399;1104;115640;-84
2021/05/15 09:54:32;;;;;;;3.27;2.33;;;;;;;22.38;43.50;97793.79;127407;1104;115437;-83
2021/05/15 09:57:04;;;;;;;4.15;2.40;;;;;;;22.54;42.95;97794.06;127291;1104;115636;-84
2021/05/15 09:59:32;;;;;;;4.47;2.80;;;;;;;22.51;41.10;97792.90;127218;1099;115500;-83
2021/05/15 10:02:04;;;;;;;3.55;2.60;;;;;;;22.50;41.58;97796.83;128163;1104;22741;-84
2021/05/15 10:04:31;;;;;;;4.40;2.93;;;;;;;22.46;40.43;97790.59;127440;1104;115770;-84
2021/05/15 10:06:57;;;;;;;3.68;2.48;;;;;;;22.36;38.89;97794.20;127186;1105;115745;-84
2021/05/15 10:09:34;;;;;;;4.05;2.60;;;;;;;22.29;39.47;97786.79;127433;1104;115389;-84
2021/05/15 10:12:04;;;;;;;3.20;2.48;;;;;;;22.31;38.61;97786.38;127212;1099;115463;-84
2021/05/15 10:14:30;;;;;;;3.53;2.63;;;;;;;22.21;38.23;97784.50;127490;1104;115767;-84
2021/05/15 10:16:57;;;;;;;2.95;2.50;;;;;;;22.19;39.21;97790.36;127958;1105;22733;-84
2021/05/15 10:19:24;;;;;;;3.30;2.35;;;;;;;22.22;39.25;97788.80;127186;1104;115727;-84
2021/05/15 10:21:51;;;;;;;3.88;2.88;;;;;;;22.22;38.76;97781.34;127206;1106;116561;-84
2021/05/15 10:24:23;;;;;;;5.65;2.45;;;;;;;22.28;38.94;97777.01;127361;1104;115720;-82
2021/05/15 10:27:06;;;;;;;3.57;2.60;;;;;;;22.36;38.92;97794.20;127179;1104;116167;-81
2021/05/15 10:29:44;;;;;;;3.60;2.98;;;;;;;22.38;37.96;97783.59;127486;1104;115833;-82
2021/05/15 10:32:22;;;;;;;3.55;2.25;;;;;;;22.38;38.00;97786.34;128453;1104;22805;-81
2021/05/15 10:34:57;;;;;;;3.53;2.70;;;;;;;22.30;37.32;97782.08;127620;1100;114949;-82
2021/05/15 10:37:25;;;;;;;3.88;2.35;;;;;;;22.28;38.26;97787.98;127659;1104;115702;-83
2021/05/15 10:39:51;;;;;;;3.85;2.75;;;;;;;22.31;37.90;97780.89;127671;1098;115526;-82
2021/05/15 10:42:33;;;;;;;3.08;2.60;;;;;;;22.25;37.93;97782.52;127581;1104;115973;-82
2021/05/15 10:45:01;;;;;;;2.80;2.23;;;;;;;22.19;36.86;97773.14;127500;1105;116086;-82
2021/05/15 10:47:27;;;;;;;3.33;2.58;;;;;;;22.16;36.85;97777.45;128557;1104;22874;-82
2021/05/15 10:50:19;;;;;;;2.60;2.40;;;;;;;22.17;36.58;97770.03;127522;1104;115478;-82
2021/05/15 10:52:47;;;;;;;2.83;2.25;;;;;;;22.16;37.33;97773.93;127577;1104;114973;-82
2021/05/15 10:55:14;;;;;;;4.48;2.70;;;;;;;22.24;37.60;97767.22;127396;1099;115528;-83
2021/05/15 10:57:40;;;;;;;3.43;2.28;;;;;;;22.28;37.29;97767.97;127616;1100;115678;-82
2021/05/15 11:00:09;;;;;;;3.80;2.60;;;;;;;22.30;37.66;97769.14;127647;1104;115824;-83
2021/05/15 11:02:37;;;;;;;4.08;2.83;;;;;;;22.27;35.91;97758.97;127537;1104;115639;-82
2021/05/15 11:05:11;;;;;;;3.05;2.45;;;;;;;22.23;37.19;97765.66;128375;1099;22739;-82
2021/05/15 11:07:39;;;;;;;4.08;2.43;;;;;;;22.22;37.36;97758.63;127610;1104;115049;-82
2021/05/15 11:10:09;;;;;;;4.20;2.60;;;;;;;22.09;37.39;97754.77;127594;1105;116247;-82
2021/05/15 11:12:47;;;;;;;4.55;2.30;;;;;;;22.11;37.34;97749.66;127358;1105;115927;-83
2021/05/15 11:15:17;;;;;;;2.60;2.40;;;;;;;22.17;36.47;97751.61;127596;1104;115682;-83
2021/05/15 11:17:46;;;;;;;4.68;2.08;;;;;;;22.31;37.17;97753.47;127566;1100;115162;-82
2021/05/15 11:20:19;;;;;;;4.83;2.38;;;;;;;22.42;36.90;97750.66;128465;1104;22732;-82
2021/05/15 11:22:47;;;;;;;3.35;2.30;;;;;;;22.50;35.73;97741.19;127584;1105;115829;-82
2021/05/15 11:25:13;;;;;;;2.33;2.13;;;;;;;22.43;36.10;97743.98;127614;1104;115535;-82
2021/05/15 11:28:00;;;;;;;3.65;2.30;;;;;;;22.41;36.57;97738.13;127675;1104;115018;-82